Flugplatz Wahlstedt

Für EDHW sind keine METAR/TAF Berichte vorhanden.
Es werden die Flugwettermeldungen vom Flugplatz Lübeck Blankensee in 37 km Entfernung angezeigt.

Bericht für EDHL

vom 01.12. um 08:20 UTC

Wind 6 kt aus 190°

Sichtweite 3900 m

Sprühregen

aufgelockert bewölkt in 400 ft

aufgebrochene Bewölkung in 700 ft

Temperatur 8.0°C

Taupunkt 7.0°C

Luftfeuchtigkeit 93%

Luftdruck 987 hPa

EDHL 010820Z 19006KT 130V250 3900 DZ SCT004 BKN007 08/07 Q0987

Prognose für EDHL

vom 01.12. um 08:00 UTC

Zwischen 09:00 UTC und 18:00 UTC

Wind 10 kt aus 180°

Sichtweite 8000 m

aufgebrochene Bewölkung in 500 ft


Zwischen 09:00 und 10:00 UTC übergehend zu

Wind 15 kt aus 200° in Böen 25 kt

Sichtweite 8000 m

aufgebrochene Bewölkung in 1400 ft


Zwischen 09:00 UTC und 18:00 UTC zeitweise

Sichtweite 4500 m

schwacher Regen

aufgebrochene Bewölkung in 400 ft


Zwischen 12:00 und 15:00 UTC übergehend zu

Wind 20 kt aus 210° in Böen 35 kt

Sichtweite 8000 m

aufgebrochene Bewölkung in 1400 ft

TAF EDHL 010800Z 0109/0118 18010KT 8000 BKN005 TEMPO 0109/0118 4500 -RA BKN004 BECMG 0109/0110 20015G25KT BKN014 BECMG 0112/0115 21020G35KT
Impressum